4XCDE LLHZ-LLHZ

Flight info

Callsign 4XCDE
Flight time N/A
Altitude 2000
Route CVFR
Aircraft C172/L-V/N

Departure

Time 2026-04-11 19:47
Airport Herzliya Airport (LLHZ)

Arrival

Time N/A
Airport Herzliya Airport (LLHZ)
Time Latitude Longitude Altitude Speed Heading
2026-04-11 19:39 32.18223 34.82843 99 ft 0 kts 290°
2026-04-11 19:42 32.18226 34.82834 98 ft 4 kts 266°
2026-04-11 19:42 32.18206 34.82816 98 ft 4 kts 181°
2026-04-11 19:42 32.18180 34.82878 98 ft 13 kts 112°
2026-04-11 19:43 32.18146 34.82988 99 ft 13 kts 113°
2026-04-11 19:43 32.18110 34.83065 101 ft 9 kts 111°
2026-04-11 19:43 32.18092 34.83127 102 ft 7 kts 110°
2026-04-11 19:43 32.18073 34.83189 104 ft 15 kts 110°
2026-04-11 19:44 32.18031 34.83333 107 ft 17 kts 107°
2026-04-11 19:44 32.17996 34.83448 109 ft 13 kts 110°
2026-04-11 19:44 32.17972 34.83533 112 ft 9 kts 109°
2026-04-11 19:44 32.17951 34.83602 114 ft 9 kts 109°
2026-04-11 19:45 32.17927 34.83686 118 ft 14 kts 109°
2026-04-11 19:45 32.17895 34.83792 123 ft 12 kts 109°
2026-04-11 19:45 32.17880 34.83851 125 ft 0 kts 75°
2026-04-11 19:46 32.17881 34.83854 125 ft 4 kts 58°
2026-04-11 19:46 32.17924 34.83818 126 ft 23 kts 288°
2026-04-11 19:46 32.18036 34.83435 176 ft 62 kts 287°
2026-04-11 19:46 32.18185 34.82943 367 ft 65 kts 299°
2026-04-11 19:47 32.18647 34.82785 513 ft 83 kts 11°
2026-04-11 19:47 32.19225 34.82976 687 ft 86 kts 12°
2026-04-11 19:47 32.19813 34.83099 794 ft 85 kts 351°
2026-04-11 19:47 32.20305 34.82757 880 ft 83 kts 308°
2026-04-11 19:48 32.20626 34.82187 957 ft 85 kts 299°
2026-04-11 19:48 32.20908 34.81578 1061 ft 84 kts 296°
2026-04-11 19:48 32.21229 34.80984 1128 ft 88 kts 314°
2026-04-11 19:48 32.21768 34.80629 1182 ft 92 kts 346°
2026-04-11 19:49 32.22406 34.80667 1237 ft 92 kts
2026-04-11 19:49 32.23016 34.80765 1224 ft 89 kts 10°
2026-04-11 19:49 32.23638 34.80924 1188 ft 92 kts
2026-04-11 19:49 32.24281 34.81077 1142 ft 95 kts
2026-04-11 19:50 32.24909 34.81205 1182 ft 88 kts
2026-04-11 19:50 32.25519 34.81257 1156 ft 91 kts
2026-04-11 19:50 32.26185 34.81395 1080 ft 99 kts
2026-04-11 19:50 32.26812 34.81470 1169 ft 87 kts
2026-04-11 19:51 32.27438 34.81525 1130 ft 95 kts 360°
2026-04-11 19:51 32.28091 34.81581 1154 ft 93 kts 358°
2026-04-11 19:51 32.28742 34.81655 1147 ft 96 kts
2026-04-11 19:51 32.29383 34.81847 1175 ft 94 kts 14°
2026-04-11 19:52 32.30012 34.82050 1165 ft 95 kts
2026-04-11 19:52 32.30653 34.82253 1191 ft 93 kts 14°
2026-04-11 19:52 32.31259 34.82480 1238 ft 92 kts 13°
2026-04-11 19:52 32.31883 34.82692 1236 ft 98 kts 13°
2026-04-11 19:53 32.32562 34.82899 1213 ft 102 kts 11°
2026-04-11 19:53 32.33246 34.83093 1222 ft 102 kts 10°
2026-04-11 19:53 32.33958 34.83277 1172 ft 105 kts
2026-04-11 19:53 32.34665 34.83442 1173 ft 102 kts
2026-04-11 19:54 32.35350 34.83635 1185 ft 101 kts 11°
2026-04-11 19:54 32.36045 34.83816 1170 ft 102 kts 11°
2026-04-11 19:54 32.36745 34.84049 1165 ft 103 kts 14°
2026-04-11 19:54 32.37404 34.84264 1242 ft 98 kts
2026-04-11 19:55 32.38120 34.84398 1151 ft 105 kts
2026-04-11 19:55 32.38798 34.84632 1190 ft 101 kts 17°
2026-04-11 19:55 32.39465 34.84909 1179 ft 101 kts 13°
2026-04-11 19:55 32.40140 34.85180 1150 ft 104 kts 20°
2026-04-11 19:56 32.40774 34.85541 1213 ft 98 kts 22°
2026-04-11 19:56 32.41405 34.85872 1173 ft 103 kts 22°
2026-04-11 19:56 32.42058 34.86239 1160 ft 102 kts 21°
2026-04-11 19:56 32.42704 34.86577 1186 ft 100 kts 17°
2026-04-11 19:57 32.43296 34.86964 1254 ft 98 kts 36°
2026-04-11 19:57 32.43788 34.87534 1164 ft 110 kts 44°
2026-04-11 19:57 32.44285 34.88170 1222 ft 104 kts 46°
2026-04-11 19:57 32.44770 34.88803 1223 ft 105 kts 48°
2026-04-11 19:58 32.45219 34.89493 1215 ft 107 kts 51°
2026-04-11 19:58 32.45685 34.90162 1243 ft 104 kts 47°
2026-04-11 19:58 32.46178 34.90850 1184 ft 110 kts 46°
2026-04-11 19:58 32.46700 34.91449 1190 ft 104 kts 30°
2026-04-11 19:59 32.47350 34.91794 1177 ft 102 kts 17°
2026-04-11 19:59 32.48025 34.92083 1181 ft 101 kts 15°
2026-04-11 19:59 32.48707 34.92285 1097 ft 108 kts
2026-04-11 19:59 32.49425 34.92408 1194 ft 95 kts
2026-04-11 20:00 32.50068 34.92567 1239 ft 93 kts
2026-04-11 20:00 32.50693 34.92745 1297 ft 90 kts 10°
2026-04-11 20:00 32.51326 34.92891 1264 ft 100 kts
2026-04-11 20:00 32.52033 34.93000 1379 ft 104 kts
2026-04-11 20:01 32.52751 34.93158 1509 ft 105 kts
2026-04-11 20:01 32.53451 34.93288 1561 ft 100 kts
2026-04-11 20:01 32.54146 34.93435 1487 ft 103 kts
2026-04-11 20:01 32.54848 34.93576 1521 ft 102 kts
2026-04-11 20:02 32.55557 34.93697 1429 ft 107 kts
2026-04-11 20:02 32.56301 34.93758 1458 ft 101 kts
2026-04-11 20:02 32.56966 34.93947 1527 ft 98 kts
2026-04-11 20:02 32.57652 34.94097 1504 ft 101 kts
2026-04-11 20:03 32.58100 34.94185 1551 ft 98 kts
2026-04-11 20:03 32.59027 34.94393 1497 ft 101 kts
2026-04-11 20:03 32.59485 34.94480 1473 ft 101 kts
2026-04-11 20:03 32.60215 34.94576 1323 ft 108 kts 359°
2026-04-11 20:04 32.60942 34.94590 1323 ft 102 kts
2026-04-11 20:04 32.61616 34.94750 1371 ft 96 kts
2026-04-11 20:04 32.62454 34.94977 1443 ft 92 kts 17°
2026-04-11 20:04 32.62855 34.95172 1465 ft 93 kts 18°
2026-04-11 20:05 32.63464 34.95458 1471 ft 95 kts 17°
2026-04-11 20:05 32.64103 34.95678 1475 ft 96 kts
2026-04-11 20:05 32.64754 34.95858 1473 ft 98 kts 10°
2026-04-11 20:05 32.65421 34.96039 1473 ft 98 kts 10°
2026-04-11 20:06 32.66088 34.96222 1474 ft 99 kts
2026-04-11 20:06 32.66764 34.96404 1480 ft 100 kts
2026-04-11 20:06 32.67450 34.96589 1482 ft 102 kts 10°
2026-04-11 20:06 32.68149 34.96778 1478 ft 103 kts
2026-04-11 20:07 32.68839 34.96966 1479 ft 101 kts
2026-04-11 20:07 32.69527 34.97152 1474 ft 101 kts 10°
2026-04-11 20:07 32.70208 34.97137 1474 ft 98 kts 354°
2026-04-11 20:07 32.70882 34.97113 1476 ft 98 kts 355°
2026-04-11 20:08 32.71536 34.96945 1473 ft 95 kts 334°
2026-04-11 20:08 32.72139 34.96638 1468 ft 94 kts 333°
2026-04-11 20:08 32.72741 34.96329 1465 ft 94 kts 334°
2026-04-11 20:08 32.73345 34.96019 1471 ft 94 kts 333°
2026-04-11 20:09 32.73930 34.95671 1470 ft 94 kts 327°
2026-04-11 20:09 32.74494 34.95281 1466 ft 94 kts 327°
2026-04-11 20:09 32.75059 34.94893 1464 ft 94 kts 327°
2026-04-11 20:09 32.75628 34.94535 1460 ft 92 kts 338°
2026-04-11 20:10 32.76255 34.94398 1464 ft 92 kts 354°
2026-04-11 20:10 32.76473 34.94402 1461 ft 93 kts 359°
2026-04-11 20:11 32.78852 34.94730 1467 ft 94 kts 358°
2026-04-11 20:11 32.79507 34.94766 1472 ft 95 kts 358°
2026-04-11 20:11 32.80171 34.94802 1476 ft 96 kts 358°
2026-04-11 20:11 32.80847 34.94838 1475 ft 97 kts 359°
2026-04-11 20:12 32.81518 34.94872 1471 ft 96 kts 358°
2026-04-11 20:12 32.82192 34.94905 1470 ft 97 kts 359°
2026-04-11 20:12 32.82867 34.94938 1469 ft 97 kts 358°
2026-04-11 20:12 32.83544 34.94974 1472 ft 98 kts
2026-04-11 20:13 32.84075 34.95449 1465 ft 102 kts 64°
2026-04-11 20:13 32.84272 34.96269 1468 ft 103 kts 79°
2026-04-11 20:13 32.84340 34.97114 1464 ft 102 kts 84°
2026-04-11 20:13 32.84402 34.97961 1465 ft 103 kts 84°
2026-04-11 20:14 32.84464 34.98819 1428 ft 105 kts 84°
2026-04-11 20:14 32.84528 34.99700 1330 ft 108 kts 85°
2026-04-11 20:14 32.84590 35.00565 1198 ft 102 kts 84°
2026-04-11 20:14 32.84650 35.01394 1069 ft 100 kts 84°
2026-04-11 20:15 32.84707 35.02208 939 ft 98 kts 84°
2026-04-11 20:15 32.84612 35.02991 862 ft 100 kts 116°
2026-04-11 20:15 32.84261 35.03687 938 ft 98 kts 123°
2026-04-11 20:15 32.83878 35.04378 932 ft 102 kts 125°
2026-04-11 20:16 32.83455 35.05057 988 ft 99 kts 132°
2026-04-11 20:16 32.82924 35.05549 1014 ft 98 kts 157°
2026-04-11 20:16 32.82307 35.05829 941 ft 94 kts 162°
2026-04-11 20:16 32.81700 35.06085 889 ft 92 kts 163°
2026-04-11 20:17 32.81134 35.06343 922 ft 86 kts 157°
2026-04-11 20:17 32.80592 35.06675 906 ft 89 kts 152°
2026-04-11 20:17 32.80066 35.07099 870 ft 92 kts 150°
2026-04-11 20:17 32.79521 35.07273 896 ft 78 kts 196°
2026-04-11 20:18 32.78985 35.07045 738 ft 82 kts 207°
2026-04-11 20:18 32.78546 35.06665 676 ft 76 kts 226°
2026-04-11 20:18 32.78189 35.06199 586 ft 76 kts 234°
2026-04-11 20:18 32.78043 35.05673 588 ft 68 kts 291°
2026-04-11 20:19 32.78465 35.05371 518 ft 78 kts 341°
2026-04-11 20:19 32.78955 35.05203 455 ft 72 kts 339°
2026-04-11 20:19 32.79438 35.05052 378 ft 72 kts 346°
2026-04-11 20:19 32.79910 35.04856 232 ft 69 kts 337°
2026-04-11 20:20 32.80361 35.04658 106 ft 70 kts 337°
2026-04-11 20:20 32.80776 35.04481 26 ft 52 kts 335°
2026-04-11 20:20 32.81045 35.04355 26 ft 33 kts 347°
2026-04-11 20:20 32.81172 35.04279 28 ft 12 kts 246°
2026-04-11 20:21 32.81149 35.04203 26 ft 8 kts 242°
2026-04-11 20:21 32.81127 35.04218 25 ft 2 kts 23°